PGT825 OBBI-LTFJ
Flight info
| Callsign | PGT825 |
|---|---|
| Flight time | N/A |
| Altitude | 34000 |
| Route | BHR M444 DAVUS L602 GADSI M860 NINVA UM860 NAREN UT368 EZS UL614 MARTI UG8 GOBIT UL614 UMRUN UG8 TOKER |
| Aircraft | B738/M-SDE2E3FGHIRWXY/LB1 |
Departure
| Time | 2026-05-04 05:59 |
|---|---|
| Airport | Bahrain International Airport (OBBI) |
Arrival
| Time | N/A |
|---|---|
| Airport | Istanbul Sabiha Gökçen International Airport (LTFJ) |
| Time | Latitude | Longitude | Altitude | Speed | Heading |
|---|---|---|---|---|---|
| 2026-05-04 04:55 | 26.26598 | 50.63480 | 24 ft | 0 kts | 195° |
| 2026-05-04 05:45 | 26.26690 | 50.63489 | 29 ft | 1 kts | 123° |
| 2026-05-04 05:49 | 26.26689 | 50.63491 | 29 ft | 1 kts | 123° |
| 2026-05-04 05:51 | 26.26650 | 50.63557 | 24 ft | 3 kts | 122° |
| 2026-05-04 05:51 | 26.26637 | 50.63580 | 25 ft | 4 kts | 122° |
| 2026-05-04 05:52 | 26.26621 | 50.63610 | 25 ft | 5 kts | 122° |
| 2026-05-04 05:52 | 26.26601 | 50.63645 | 25 ft | 6 kts | 123° |
| 2026-05-04 05:52 | 26.26576 | 50.63689 | 24 ft | 7 kts | 122° |
| 2026-05-04 05:52 | 26.26572 | 50.63744 | 23 ft | 7 kts | 59° |
| 2026-05-04 05:53 | 26.26610 | 50.63780 | 23 ft | 7 kts | 55° |
| 2026-05-04 05:54 | 26.26457 | 50.64101 | 22 ft | 8 kts | 122° |
| 2026-05-04 05:55 | 26.26425 | 50.64159 | 21 ft | 9 kts | 121° |
| 2026-05-04 05:55 | 26.26388 | 50.64221 | 22 ft | 10 kts | 124° |
| 2026-05-04 05:55 | 26.26346 | 50.64292 | 21 ft | 12 kts | 122° |
| 2026-05-04 05:55 | 26.26301 | 50.64375 | 19 ft | 13 kts | 121° |
| 2026-05-04 05:56 | 26.26251 | 50.64461 | 19 ft | 13 kts | 123° |
| 2026-05-04 05:56 | 26.26203 | 50.64542 | 22 ft | 13 kts | 123° |
| 2026-05-04 05:56 | 26.26156 | 50.64624 | 21 ft | 12 kts | 122° |
| 2026-05-04 05:56 | 26.26110 | 50.64703 | 21 ft | 12 kts | 123° |
| 2026-05-04 05:57 | 26.26065 | 50.64782 | 22 ft | 12 kts | 122° |
| 2026-05-04 05:57 | 26.26030 | 50.64846 | 22 ft | 8 kts | 120° |
| 2026-05-04 05:57 | 26.26021 | 50.64905 | 22 ft | 8 kts | 80° |
| 2026-05-04 05:57 | 26.26047 | 50.64962 | 23 ft | 6 kts | 51° |
| 2026-05-04 05:58 | 26.26067 | 50.64978 | 22 ft | 4 kts | 31° |
| 2026-05-04 05:58 | 26.26101 | 50.64997 | 22 ft | 7 kts | 17° |
| 2026-05-04 05:58 | 26.26150 | 50.64970 | 22 ft | 9 kts | 313° |
| 2026-05-04 05:58 | 26.26213 | 50.64870 | 20 ft | 26 kts | 302° |
| 2026-05-04 05:59 | 26.26402 | 50.64545 | 19 ft | 85 kts | 302° |
| 2026-05-04 05:59 | 26.26851 | 50.63757 | 20 ft | 153 kts | 302° |
| 2026-05-04 05:59 | 26.27539 | 50.62584 | 147 ft | 201 kts | 303° |
| 2026-05-04 05:59 | 26.28312 | 50.61252 | 881 ft | 211 kts | 303° |
| 2026-05-04 06:00 | 26.29380 | 50.60042 | 1323 ft | 229 kts | 335° |
| 2026-05-04 06:00 | 26.30987 | 50.59829 | 1812 ft | 244 kts | 12° |
| 2026-05-04 06:00 | 26.32551 | 50.60616 | 2286 ft | 247 kts | 19° |
| 2026-05-04 06:00 | 26.34188 | 50.60766 | 2744 ft | 239 kts | 349° |
| 2026-05-04 06:01 | 26.35846 | 50.60424 | 3246 ft | 245 kts | 350° |
| 2026-05-04 06:01 | 26.37536 | 50.60136 | 3707 ft | 245 kts | 351° |
| 2026-05-04 06:03 | 26.49628 | 50.56267 | 8091 ft | 272 kts | 341° |
| 2026-05-04 06:03 | 26.50843 | 50.55816 | 8525 ft | 274 kts | 341° |
| 2026-05-04 06:05 | 26.65076 | 50.50472 | 11028 ft | 356 kts | 340° |
| 2026-05-04 06:05 | 26.69721 | 50.48474 | 12126 ft | 359 kts | 330° |
| 2026-05-04 06:05 | 26.71814 | 50.46946 | 12677 ft | 360 kts | 320° |
| 2026-05-04 06:06 | 26.73681 | 50.45055 | 13205 ft | 363 kts | 315° |
| 2026-05-04 06:06 | 26.75485 | 50.43107 | 13725 ft | 366 kts | 315° |
| 2026-05-04 06:06 | 26.77327 | 50.41121 | 14190 ft | 369 kts | 315° |
| 2026-05-04 06:06 | 26.79197 | 50.39131 | 14682 ft | 372 kts | 315° |
| 2026-05-04 06:07 | 26.81085 | 50.37136 | 15171 ft | 374 kts | 315° |
| 2026-05-04 06:07 | 26.82983 | 50.35133 | 15645 ft | 377 kts | 315° |
| 2026-05-04 06:07 | 26.84895 | 50.33112 | 16125 ft | 379 kts | 315° |
| 2026-05-04 06:07 | 26.86816 | 50.31080 | 16603 ft | 381 kts | 315° |
| 2026-05-04 06:08 | 26.88760 | 50.29022 | 17069 ft | 384 kts | 314° |
| 2026-05-04 06:08 | 26.90712 | 50.26953 | 17524 ft | 387 kts | 314° |
| 2026-05-04 06:08 | 26.92668 | 50.24879 | 17975 ft | 389 kts | 314° |
| 2026-05-04 06:08 | 26.94642 | 50.22785 | 18385 ft | 392 kts | 314° |
| 2026-05-04 06:09 | 26.96626 | 50.20680 | 18756 ft | 394 kts | 314° |
| 2026-05-04 06:09 | 26.98630 | 50.18552 | 19121 ft | 397 kts | 314° |
| 2026-05-04 06:11 | 27.13717 | 50.04165 | 21609 ft | 418 kts | 319° |
| 2026-05-04 06:11 | 27.16029 | 50.02158 | 21949 ft | 421 kts | 319° |
| 2026-05-04 06:13 | 27.32500 | 49.87680 | 24170 ft | 435 kts | 317° |
| 2026-05-04 06:14 | 27.46849 | 49.75022 | 25896 ft | 440 kts | 317° |
| 2026-05-04 06:14 | 27.49263 | 49.72887 | 26153 ft | 441 kts | 316° |
| 2026-05-04 06:15 | 27.51679 | 49.70750 | 26416 ft | 442 kts | 316° |
| 2026-05-04 06:15 | 27.54104 | 49.68603 | 26668 ft | 443 kts | 316° |
| 2026-05-04 06:15 | 27.56528 | 49.66456 | 26913 ft | 444 kts | 316° |
| 2026-05-04 06:15 | 27.58930 | 49.64328 | 27152 ft | 445 kts | 316° |
| 2026-05-04 06:16 | 27.61368 | 49.62166 | 27387 ft | 446 kts | 316° |
| 2026-05-04 06:16 | 27.63816 | 49.59994 | 27620 ft | 447 kts | 316° |
| 2026-05-04 06:16 | 27.66263 | 49.57822 | 27842 ft | 448 kts | 316° |
| 2026-05-04 06:16 | 27.68720 | 49.55639 | 28062 ft | 449 kts | 316° |
| 2026-05-04 06:17 | 27.71176 | 49.53455 | 28272 ft | 450 kts | 316° |
| 2026-05-04 06:17 | 27.73636 | 49.51266 | 28498 ft | 450 kts | 316° |
| 2026-05-04 06:17 | 27.76093 | 49.49077 | 28791 ft | 449 kts | 315° |
| 2026-05-04 06:17 | 27.78512 | 49.46921 | 29138 ft | 447 kts | 315° |
| 2026-05-04 06:18 | 27.80944 | 49.44751 | 29483 ft | 445 kts | 315° |
| 2026-05-04 06:18 | 27.83371 | 49.42585 | 29798 ft | 444 kts | 315° |
| 2026-05-04 06:18 | 27.85792 | 49.40421 | 30070 ft | 443 kts | 315° |
| 2026-05-04 06:20 | 28.04216 | 49.27630 | 31695 ft | 455 kts | 330° |
| 2026-05-04 06:20 | 28.07113 | 49.26291 | 31907 ft | 455 kts | 329° |
| 2026-05-04 06:21 | 28.18751 | 49.20761 | 32839 ft | 452 kts | 328° |
| 2026-05-04 06:21 | 28.21646 | 49.19373 | 33071 ft | 452 kts | 328° |
| 2026-05-04 06:22 | 28.24541 | 49.17986 | 33302 ft | 451 kts | 328° |
| 2026-05-04 06:22 | 28.27429 | 49.16583 | 33521 ft | 450 kts | 328° |
| 2026-05-04 06:25 | 28.61389 | 48.93924 | 35828 ft | 430 kts | 316° |
| 2026-05-04 06:26 | 28.66363 | 48.90104 | 35872 ft | 432 kts | 316° |
| 2026-05-04 06:26 | 28.71338 | 48.86282 | 35878 ft | 430 kts | 316° |
| 2026-05-04 06:27 | 28.83661 | 48.76798 | 35877 ft | 426 kts | 316° |
| 2026-05-04 06:28 | 28.88577 | 48.73029 | 35879 ft | 426 kts | 316° |
| 2026-05-04 06:28 | 28.93498 | 48.69247 | 35883 ft | 431 kts | 316° |
| 2026-05-04 06:29 | 28.98501 | 48.65397 | 35884 ft | 435 kts | 316° |